Time;durP1;ratioP1;P1;durP2;ratioP2;P2;SDS_P1;SDS_P2;PMS_P1;PMS_P2;Temp;Humidity;BMP_temperature;BMP_pressure;BME280_temperature;BME280_humidity;BME280_pressure;Samples;Min_cycle;Max_cycle;Signal;HPM_P1;HPM_P2
2023/07/08 00:00:14;;;;;;;3.78;3.47;;;19.10;91.80;;;;;;5072708;28;20199;-74
2023/07/08 00:02:41;;;;;;;4.18;3.88;;;19.00;92.10;;;;;;5075331;28;20233;-74
2023/07/08 00:05:09;;;;;;;5.25;4.28;;;19.10;91.80;;;;;;5069498;28;20198;-74
2023/07/08 00:07:35;;;;;;;4.85;4.45;;;19.00;92.10;;;;;;5070423;28;20265;-74
2023/07/08 00:10:01;;;;;;;4.35;4.00;;;19.00;92.00;;;;;;5070060;28;20191;-75
2023/07/08 00:12:26;;;;;;;5.85;4.93;;;19.00;92.10;;;;;;5074158;28;20189;-73
2023/07/08 00:14:52;;;;;;;6.40;4.53;;;18.80;92.70;;;;;;5071213;28;20184;-74
2023/07/08 00:17:17;;;;;;;7.07;4.43;;;18.80;92.60;;;;;;5070769;28;20167;-74
2023/07/08 00:19:43;;;;;;;5.65;5.15;;;18.80;92.80;;;;;;5065443;28;20236;-74
2023/07/08 00:22:16;;;;;;;4.68;3.85;;;18.80;92.40;;;;;;5069803;28;20199;-75
2023/07/08 00:24:43;;;;;;;6.25;5.22;;;18.90;92.30;;;;;;5068129;28;20236;-75
2023/07/08 00:27:13;;;;;;;4.32;4.03;;;18.80;92.20;;;;;;5076742;28;20280;-74
2023/07/08 00:29:39;;;;;;;5.25;4.72;;;18.70;92.70;;;;;;5077181;28;20171;-75
2023/07/08 00:32:15;;;;;;;4.95;4.55;;;18.70;92.90;;;;;;5079734;28;20217;-75
2023/07/08 00:34:41;;;;;;;4.57;4.32;;;18.70;92.90;;;;;;5076243;28;20671;-75
2023/07/08 00:37:13;;;;;;;5.75;4.55;;;18.70;92.70;;;;;;5077458;28;20183;-75
2023/07/08 00:39:39;;;;;;;5.53;4.53;;;18.80;92.40;;;;;;5077262;28;20231;-75
2023/07/08 00:42:24;;;;;;;5.18;4.70;;;18.60;93.20;;;;;;5073534;28;20264;-75
2023/07/08 00:44:49;;;;;;;5.05;4.55;;;18.60;93.10;;;;;;5076206;28;20243;-75
2023/07/08 00:47:15;;;;;;;4.85;4.45;;;18.60;93.20;;;;;;5077549;28;20175;-75
2023/07/08 00:49:52;;;;;;;4.95;4.53;;;18.60;93.30;;;;;;5078866;28;20193;-74
2023/07/08 00:52:28;;;;;;;4.03;3.65;;;18.60;93.30;;;;;;5079771;28;20194;-75
2023/07/08 00:55:02;;;;;;;4.55;4.25;;;18.50;93.60;;;;;;5072053;28;20235;-75
2023/07/08 00:57:33;;;;;;;6.28;4.72;;;18.40;93.60;;;;;;5071453;28;20258;-74
2023/07/08 01:00:15;;;;;;;3.33;3.22;;;18.40;93.80;;;;;;5073539;28;20810;-75
2023/07/08 01:02:54;;;;;;;4.22;3.83;;;18.40;93.80;;;;;;5048640;28;20213;-76
2023/07/08 01:05:23;;;;;;;4.38;3.97;;;18.40;93.80;;;;;;5057997;28;20178;-74
2023/07/08 01:07:58;;;;;;;4.05;3.75;;;18.30;94.20;;;;;;5067029;28;20183;-73
2023/07/08 01:10:38;;;;;;;4.45;4.10;;;18.40;94.00;;;;;;5065793;28;20178;-75
2023/07/08 01:13:07;;;;;;;3.67;3.47;;;18.40;93.90;;;;;;5073478;28;20171;-73
2023/07/08 01:15:40;;;;;;;4.65;3.78;;;18.40;93.80;;;;;;5055730;28;20210;-76
2023/07/08 01:18:07;;;;;;;3.13;3.03;;;18.40;93.90;;;;;;5069908;28;20700;-75
2023/07/08 01:20:33;;;;;;;5.05;3.78;;;18.20;94.30;;;;;;5075064;28;20175;-75
2023/07/08 01:22:59;;;;;;;3.60;3.40;;;18.20;94.30;;;;;;5076227;28;20611;-75
2023/07/08 01:25:25;;;;;;;4.47;4.07;;;18.30;93.90;;;;;;5056736;28;20187;-74
2023/07/08 01:27:55;;;;;;;6.93;3.92;;;18.30;94.00;;;;;;5073304;28;20180;-75
2023/07/08 01:30:21;;;;;;;3.47;3.35;;;18.30;94.00;;;;;;5078988;28;20177;-76
2023/07/08 01:33:01;;;;;;;4.32;4.03;;;18.20;94.20;;;;;;5077476;28;20176;-75
2023/07/08 01:35:27;;;;;;;3.30;3.20;;;18.20;94.30;;;;;;5078319;28;20174;-75
2023/07/08 01:37:57;;;;;;;4.00;3.70;;;18.20;94.30;;;;;;5069261;28;20539;-75
2023/07/08 01:40:35;;;;;;;3.85;3.65;;;18.20;94.40;;;;;;5078372;28;20187;-75
2023/07/08 01:43:02;;;;;;;3.90;3.60;;;18.10;94.30;;;;;;5071574;28;20189;-75
2023/07/08 01:45:33;;;;;;;3.83;3.58;;;18.20;94.30;;;;;;5076421;28;20171;-75
2023/07/08 01:48:17;;;;;;;3.58;3.38;;;18.10;94.40;;;;;;5071953;28;20175;-76
2023/07/08 01:50:48;;;;;;;4.13;3.67;;;18.10;94.10;;;;;;5068060;28;20201;-76
2023/07/08 01:53:28;;;;;;;3.25;3.15;;;18.10;94.20;;;;;;5077113;28;20266;-74
2023/07/08 01:55:54;;;;;;;3.42;3.22;;;18.10;94.10;;;;;;5071135;28;20240;-76
2023/07/08 01:58:19;;;;;;;3.97;3.67;;;18.10;94.20;;;;;;5072189;28;20614;-75
2023/07/08 02:00:48;;;;;;;3.58;3.28;;;18.10;94.40;;;;;;5070847;28;20785;-75
2023/07/08 02:03:14;;;;;;;3.22;3.13;;;18.00;94.70;;;;;;5051006;28;20191;-74
2023/07/08 02:05:39;;;;;;;3.65;3.45;;;18.00;94.60;;;;;;5070745;28;20182;-74
2023/07/08 02:08:05;;;;;;;4.75;3.10;;;18.10;94.50;;;;;;5071076;28;20179;-73
2023/07/08 02:10:31;;;;;;;3.33;3.22;;;18.00;94.70;;;;;;5073538;28;20236;-74
2023/07/08 02:12:56;;;;;;;2.70;2.60;;;18.00;94.50;;;;;;5075795;28;20239;-74
2023/07/08 02:15:22;;;;;;;3.72;2.85;;;18.00;94.60;;;;;;5077474;28;20194;-74
2023/07/08 02:17:50;;;;;;;5.50;3.40;;;18.00;94.70;;;;;;5074508;28;20224;-74
2023/07/08 02:20:16;;;;;;;3.00;2.80;;;18.00;94.70;;;;;;5078005;28;20232;-74
2023/07/08 02:22:41;;;;;;;3.95;3.65;;;18.00;94.70;;;;;;5070951;28;20715;-72
2023/07/08 02:25:10;;;;;;;4.57;3.70;;;18.00;94.60;;;;;;5070876;28;20183;-74
2023/07/08 02:27:37;;;;;;;3.40;3.22;;;18.00;94.50;;;;;;5074201;28;20219;-74
2023/07/08 02:30:04;;;;;;;3.75;3.42;;;18.00;94.70;;;;;;5076365;28;20186;-76
2023/07/08 02:32:30;;;;;;;2.78;2.67;;;18.00;94.80;;;;;;5076518;28;20205;-75
2023/07/08 02:34:55;;;;;;;3.78;3.47;;;17.90;95.10;;;;;;5072416;28;20668;-74
2023/07/08 02:37:21;;;;;;;2.80;2.65;;;18.00;95.00;;;;;;5073756;28;20181;-74
2023/07/08 02:39:47;;;;;;;4.55;3.20;;;17.90;95.10;;;;;;5076165;28;20207;-74
2023/07/08 02:42:12;;;;;;;3.47;3.28;;;17.90;95.10;;;;;;5076183;28;20213;-74
2023/07/08 02:44:38;;;;;;;3.30;3.10;;;17.90;95.00;;;;;;5079151;28;20216;-74
2023/07/08 02:47:04;;;;;;;6.07;3.38;;;17.90;95.10;;;;;;5075481;28;20174;-74
2023/07/08 02:49:30;;;;;;;4.97;3.72;;;17.90;95.10;;;;;;5076836;28;20647;-73
2023/07/08 02:51:56;;;;;;;3.30;3.13;;;17.90;95.20;;;;;;5077594;28;20263;-74
2023/07/08 02:54:21;;;;;;;3.67;3.50;;;17.80;95.10;;;;;;5076413;28;20179;-74
2023/07/08 02:56:47;;;;;;;4.30;3.90;;;17.90;95.10;;;;;;5074271;28;20179;-74
2023/07/08 02:59:12;;;;;;;3.90;3.58;;;17.80;95.20;;;;;;5056915;28;20220;-74
2023/07/08 03:01:41;;;;;;;4.50;4.15;;;17.90;94.90;;;;;;5072500;28;20219;-74
2023/07/08 03:04:13;;;;;;;3.83;3.53;;;17.90;94.90;;;;;;5075689;28;20179;-74
2023/07/08 03:06:43;;;;;;;3.22;3.13;;;17.90;94.80;;;;;;5069610;28;20254;-74
2023/07/08 03:09:11;;;;;;;3.65;3.45;;;17.90;94.90;;;;;;5074100;28;20272;-74
2023/07/08 03:11:38;;;;;;;4.00;3.80;;;17.90;95.00;;;;;;5069830;28;20240;-73
2023/07/08 03:14:04;;;;;;;3.47;3.17;;;17.90;94.80;;;;;;5068505;28;20248;-74
2023/07/08 03:16:30;;;;;;;4.53;4.20;;;18.00;94.30;;;;;;5065969;28;20175;-73
2023/07/08 03:18:56;;;;;;;3.58;3.30;;;17.90;94.80;;;;;;5068726;28;20194;-74
2023/07/08 03:21:22;;;;;;;3.35;3.05;;;17.90;95.00;;;;;;5068390;28;20211;-74
2023/07/08 03:23:49;;;;;;;3.35;3.15;;;17.90;94.90;;;;;;5071013;28;20191;-74
2023/07/08 03:26:18;;;;;;;3.30;3.10;;;17.90;94.80;;;;;;5071254;28;20175;-75
2023/07/08 03:28:44;;;;;;;4.00;3.70;;;17.90;94.70;;;;;;5071017;28;20271;-75
2023/07/08 03:31:10;;;;;;;4.15;2.90;;;17.90;94.80;;;;;;5071290;28;20186;-76
2023/07/08 03:33:36;;;;;;;3.72;2.80;;;17.90;94.90;;;;;;5071128;28;20214;-76
2023/07/08 03:36:04;;;;;;;3.33;3.13;;;17.90;94.90;;;;;;5071337;28;20563;-75
2023/07/08 03:38:29;;;;;;;2.95;2.72;;;17.90;94.80;;;;;;5070688;28;20171;-75
2023/07/08 03:40:55;;;;;;;2.78;2.67;;;17.90;94.90;;;;;;5069060;28;20264;-74
2023/07/08 03:43:20;;;;;;;3.45;3.30;;;17.90;94.80;;;;;;5070586;28;20179;-75
2023/07/08 03:45:46;;;;;;;3.47;3.28;;;18.00;94.60;;;;;;5070881;28;20214;-75
2023/07/08 03:48:12;;;;;;;2.88;2.67;;;18.00;94.40;;;;;;5069718;28;20178;-75
2023/07/08 03:50:38;;;;;;;3.00;2.80;;;18.00;94.60;;;;;;5070905;28;20179;-75
2023/07/08 03:53:05;;;;;;;3.22;3.10;;;18.00;94.60;;;;;;5070700;28;20597;-75
2023/07/08 03:55:30;;;;;;;2.83;2.72;;;17.90;94.80;;;;;;5053323;28;20175;-75
2023/07/08 03:57:56;;;;;;;2.72;2.53;;;18.10;94.30;;;;;;5070472;28;20178;-74
2023/07/08 04:00:22;;;;;;;2.65;2.55;;;18.00;94.50;;;;;;5070240;28;20316;-75
2023/07/08 04:02:48;;;;;;;2.75;2.60;;;18.00;94.50;;;;;;5069778;28;20213;-74
2023/07/08 04:05:19;;;;;;;2.40;2.30;;;18.00;94.80;;;;;;5070905;28;20615;-74
2023/07/08 04:07:46;;;;;;;3.63;2.38;;;18.00;94.70;;;;;;5065690;28;20186;-74
2023/07/08 04:10:12;;;;;;;2.40;2.30;;;18.00;94.70;;;;;;5070668;28;20743;-75
2023/07/08 04:12:39;;;;;;;2.85;2.65;;;18.00;94.70;;;;;;5074883;28;20561;-74
2023/07/08 04:15:07;;;;;;;2.65;2.53;;;18.00;94.80;;;;;;5076279;28;20229;-74
2023/07/08 04:17:32;;;;;;;3.20;2.95;;;18.10;94.90;;;;;;5070017;28;20181;-73
2023/07/08 04:20:01;;;;;;;3.35;3.15;;;18.10;94.80;;;;;;5069395;28;20644;-74
2023/07/08 04:22:26;;;;;;;3.90;3.50;;;18.10;94.60;;;;;;5052397;28;20692;-74
2023/07/08 04:24:52;;;;;;;3.58;3.35;;;18.20;94.50;;;;;;5070303;28;20190;-74
2023/07/08 04:27:18;;;;;;;4.78;3.90;;;18.30;94.10;;;;;;5073260;28;20676;-72
2023/07/08 04:29:44;;;;;;;3.63;3.35;;;18.40;93.60;;;;;;5070696;28;20175;-75
2023/07/08 04:32:10;;;;;;;3.50;3.20;;;18.50;93.30;;;;;;5069129;28;20691;-74
2023/07/08 04:34:35;;;;;;;2.63;2.53;;;18.40;93.40;;;;;;5070223;28;20200;-74
2023/07/08 04:37:01;;;;;;;2.40;2.28;;;18.40;93.60;;;;;;5069372;28;20641;-74
2023/07/08 04:39:27;;;;;;;2.72;2.63;;;18.40;93.70;;;;;;5069532;28;20175;-74
2023/07/08 04:41:53;;;;;;;2.55;2.42;;;18.40;93.60;;;;;;5069698;28;20264;-73
2023/07/08 04:44:19;;;;;;;2.85;2.65;;;18.50;93.40;;;;;;5070042;28;20728;-74
2023/07/08 04:46:54;;;;;;;2.80;2.70;;;18.50;93.20;;;;;;5075086;28;20177;-74
2023/07/08 04:49:21;;;;;;;2.03;1.92;;;18.60;93.10;;;;;;5069252;28;20178;-75
2023/07/08 04:51:47;;;;;;;3.22;2.63;;;18.60;92.90;;;;;;5073039;28;20171;-73
2023/07/08 04:54:13;;;;;;;2.80;2.60;;;18.60;93.00;;;;;;5069576;28;20250;-74
2023/07/08 04:56:45;;;;;;;3.25;3.05;;;18.60;93.00;;;;;;5069618;28;20228;-76
2023/07/08 04:59:13;;;;;;;2.72;2.53;;;18.60;93.10;;;;;;5070312;28;20191;-75
2023/07/08 05:01:39;;;;;;;2.35;2.25;;;18.50;93.10;;;;;;5069451;28;20638;-75
2023/07/08 05:04:06;;;;;;;2.80;2.60;;;18.60;92.90;;;;;;5068394;28;20179;-76
2023/07/08 05:06:33;;;;;;;2.97;2.38;;;18.60;92.90;;;;;;5069590;28;20186;-75
2023/07/08 05:09:00;;;;;;;2.83;2.70;;;18.50;93.00;;;;;;5069563;28;20181;-74
2023/07/08 05:11:26;;;;;;;2.35;2.17;;;18.60;93.20;;;;;;5072514;28;20262;-73
2023/07/08 05:13:52;;;;;;;2.53;2.42;;;18.60;93.10;;;;;;5069489;28;20233;-75
2023/07/08 05:16:17;;;;;;;2.78;2.58;;;18.60;92.80;;;;;;5069594;28;20716;-75
2023/07/08 05:18:44;;;;;;;3.60;2.30;;;18.60;92.90;;;;;;5069207;28;20174;-73
2023/07/08 05:21:10;;;;;;;2.95;2.72;;;18.70;92.80;;;;;;5070389;28;20214;-74
2023/07/08 05:23:36;;;;;;;3.13;2.90;;;18.80;92.60;;;;;;5069519;28;20601;-75
2023/07/08 05:26:03;;;;;;;2.63;2.53;;;18.90;92.20;;;;;;5069020;28;20231;-75
2023/07/08 05:28:29;;;;;;;2.55;2.45;;;18.90;92.10;;;;;;5069266;28;20697;-74
2023/07/08 05:30:55;;;;;;;2.55;2.45;;;18.90;91.50;;;;;;5068988;28;20309;-74
2023/07/08 05:33:25;;;;;;;2.58;2.47;;;19.00;91.30;;;;;;5069423;28;20262;-74
2023/07/08 05:35:51;;;;;;;3.08;2.88;;;19.10;91.20;;;;;;5069477;28;20336;-75
2023/07/08 05:38:17;;;;;;;2.78;2.55;;;19.10;90.50;;;;;;5072776;28;20265;-76
2023/07/08 05:40:43;;;;;;;2.67;2.47;;;19.20;90.20;;;;;;5071895;28;20576;-76
2023/07/08 05:43:09;;;;;;;2.60;2.50;;;19.40;90.20;;;;;;5068222;28;20216;-75
2023/07/08 05:45:35;;;;;;;2.67;2.58;;;19.50;89.80;;;;;;5068569;28;20710;-73
2023/07/08 05:48:01;;;;;;;2.13;2.03;;;19.60;89.60;;;;;;5068911;28;20718;-73
2023/07/08 05:50:27;;;;;;;2.03;2.00;;;19.80;89.10;;;;;;5074401;28;20181;-74
2023/07/08 05:52:53;;;;;;;4.35;1.85;;;19.90;88.10;;;;;;5071459;28;20183;-73
2023/07/08 05:55:19;;;;;;;2.92;2.83;;;20.00;88.20;;;;;;5052420;28;20261;-74
2023/07/08 05:57:44;;;;;;;3.00;2.85;;;20.10;87.80;;;;;;5068203;28;20178;-74
2023/07/08 06:00:10;;;;;;;2.50;2.40;;;20.20;87.90;;;;;;5069486;28;20197;-74
2023/07/08 06:02:36;;;;;;;3.50;2.75;;;20.30;87.20;;;;;;5069083;28;20211;-74
2023/07/08 06:05:02;;;;;;;2.67;2.53;;;20.30;86.60;;;;;;5068916;28;20181;-74
2023/07/08 06:07:28;;;;;;;2.28;2.22;;;20.30;86.80;;;;;;5070935;28;20183;-74
2023/07/08 06:09:55;;;;;;;3.28;3.08;;;20.30;86.50;;;;;;5069379;28;20982;-73
2023/07/08 06:12:21;;;;;;;3.13;3.03;;;20.20;86.60;;;;;;5053401;28;20183;-74
2023/07/08 06:14:47;;;;;;;3.08;2.88;;;20.30;86.70;;;;;;5073718;28;20174;-74
2023/07/08 06:17:13;;;;;;;3.88;2.72;;;20.30;86.60;;;;;;5072745;28;20183;-72
2023/07/08 06:19:39;;;;;;;2.78;2.58;;;20.40;85.90;;;;;;5076400;28;20258;-73
2023/07/08 06:22:05;;;;;;;3.05;2.95;;;20.40;85.80;;;;;;5073309;28;20303;-74
2023/07/08 06:24:31;;;;;;;2.35;2.30;;;20.30;85.80;;;;;;5068942;28;20194;-73
2023/07/08 06:26:56;;;;;;;2.92;2.72;;;20.40;86.10;;;;;;5067955;28;20614;-72
2023/07/08 06:29:22;;;;;;;2.58;2.38;;;20.30;86.20;;;;;;5059963;28;20718;-72
2023/07/08 06:31:48;;;;;;;3.28;3.08;;;20.20;85.90;;;;;;5068383;28;20191;-73
2023/07/08 06:34:13;;;;;;;2.85;2.72;;;20.20;85.90;;;;;;5051122;28;20167;-73
2023/07/08 06:36:39;;;;;;;2.60;2.50;;;20.20;86.10;;;;;;5065549;28;20552;-73
2023/07/08 06:39:07;;;;;;;2.33;2.22;;;20.30;86.20;;;;;;5069454;28;20617;-75
2023/07/08 06:41:33;;;;;;;2.15;2.05;;;20.30;85.10;;;;;;5069597;28;20217;-75
2023/07/08 06:43:58;;;;;;;2.42;2.33;;;20.40;84.40;;;;;;5068358;28;20262;-71
2023/07/08 06:46:24;;;;;;;2.25;2.05;;;20.40;84.20;;;;;;5072517;28;20210;-73
2023/07/08 06:48:50;;;;;;;3.00;2.45;;;20.40;84.20;;;;;;5070812;28;20183;-72
2023/07/08 06:51:16;;;;;;;2.10;2.00;;;20.40;84.20;;;;;;5071367;28;20191;-72
2023/07/08 06:53:42;;;;;;;1.75;1.70;;;20.50;84.40;;;;;;5069278;28;20593;-72
2023/07/08 06:56:08;;;;;;;2.20;2.08;;;20.70;84.40;;;;;;5075563;28;20182;-71
2023/07/08 06:58:34;;;;;;;2.38;2.20;;;20.80;83.70;;;;;;5054065;28;20571;-72
2023/07/08 07:00:59;;;;;;;2.33;2.22;;;20.80;81.70;;;;;;5069988;28;20238;-72
2023/07/08 07:03:25;;;;;;;2.50;2.40;;;20.80;82.20;;;;;;5070909;28;20178;-72
2023/07/08 07:05:51;;;;;;;2.03;1.92;;;20.90;82.00;;;;;;5071512;28;20660;-72
2023/07/08 07:08:16;;;;;;;2.80;2.03;;;21.00;81.20;;;;;;5068799;28;20182;-72
2023/07/08 07:10:43;;;;;;;2.47;2.38;;;21.00;80.80;;;;;;5068298;28;20193;-73
2023/07/08 07:13:09;;;;;;;3.05;2.47;;;21.00;80.50;;;;;;5065603;28;20684;-76
2023/07/08 07:15:34;;;;;;;2.55;2.45;;;21.10;80.60;;;;;;5075548;28;20186;-73
2023/07/08 07:18:00;;;;;;;2.72;2.63;;;21.10;80.30;;;;;;5070101;28;20306;-74
2023/07/08 07:20:26;;;;;;;3.88;2.28;;;21.20;80.30;;;;;;5071225;28;20179;-71
2023/07/08 07:22:53;;;;;;;2.40;2.20;;;21.30;80.50;;;;;;5069106;28;20786;-71
2023/07/08 07:25:19;;;;;;;2.80;2.70;;;21.40;81.00;;;;;;5071487;28;20187;-74
2023/07/08 07:27:45;;;;;;;2.95;2.85;;;21.70;81.00;;;;;;5069300;28;20571;-73
2023/07/08 07:30:15;;;;;;;4.68;2.88;;;21.90;79.00;;;;;;5075047;28;20189;-74
2023/07/08 07:32:44;;;;;;;3.42;2.50;;;21.90;79.10;;;;;;5071556;28;20760;-72
2023/07/08 07:35:12;;;;;;;6.45;2.38;;;22.00;79.40;;;;;;5071054;28;20171;-73
2023/07/08 07:37:39;;;;;;;2.72;2.63;;;22.20;78.90;;;;;;5050115;28;20282;-71
2023/07/08 07:40:12;;;;;;;2.60;2.50;;;22.30;78.10;;;;;;5068165;28;20175;-72
2023/07/08 07:42:41;;;;;;;2.85;2.72;;;22.30;77.80;;;;;;5049173;28;20298;-71
2023/07/08 07:45:08;;;;;;;3.10;2.75;;;22.10;78.00;;;;;;5067521;28;20191;-69
2023/07/08 07:47:35;;;;;;;2.15;2.15;;;22.10;78.10;;;;;;5067204;28;20191;-73
2023/07/08 07:50:01;;;;;;;2.55;2.45;;;22.20;77.30;;;;;;5069688;28;20174;-73
2023/07/08 07:52:27;;;;;;;2.58;2.47;;;22.20;77.70;;;;;;5073165;28;20244;-73
2023/07/08 07:54:54;;;;;;;2.72;2.63;;;22.30;77.40;;;;;;5074874;28;20182;-73
2023/07/08 07:57:20;;;;;;;2.50;2.40;;;22.30;77.90;;;;;;5070874;28;20539;-73
2023/07/08 07:59:47;;;;;;;3.17;2.88;;;22.40;77.50;;;;;;5077251;28;20233;-72
2023/07/08 08:02:12;;;;;;;2.67;2.58;;;22.30;77.50;;;;;;5056888;28;20237;-73
2023/07/08 08:04:38;;;;;;;3.38;2.70;;;22.40;77.60;;;;;;5073194;28;20187;-72
2023/07/08 08:07:04;;;;;;;3.42;2.15;;;22.50;77.70;;;;;;5072612;28;20178;-74
2023/07/08 08:09:30;;;;;;;2.30;2.20;;;22.50;77.10;;;;;;5071872;28;20229;-72
2023/07/08 08:11:55;;;;;;;2.13;2.13;;;22.60;77.60;;;;;;5072288;28;20183;-73
2023/07/08 08:14:21;;;;;;;4.30;2.60;;;22.70;77.00;;;;;;5080380;28;20223;-73
2023/07/08 08:16:47;;;;;;;3.15;2.95;;;22.60;76.80;;;;;;5069804;28;20175;-73
2023/07/08 08:19:13;;;;;;;2.55;2.45;;;22.50;76.50;;;;;;5073446;28;20183;-73
2023/07/08 08:21:38;;;;;;;3.28;3.10;;;22.50;77.10;;;;;;5076098;28;20242;-72
2023/07/08 08:24:04;;;;;;;2.60;2.45;;;22.40;76.80;;;;;;5078139;28;20179;-73
2023/07/08 08:26:30;;;;;;;3.00;2.75;;;22.40;77.40;;;;;;5075539;28;20210;-73
2023/07/08 08:28:56;;;;;;;2.55;2.45;;;22.50;78.00;;;;;;5075434;28;20195;-73
2023/07/08 08:31:22;;;;;;;3.05;2.85;;;22.70;77.70;;;;;;5073045;28;20684;-72
2023/07/08 08:33:47;;;;;;;2.70;2.50;;;22.70;77.40;;;;;;5074979;28;20245;-72
2023/07/08 08:36:13;;;;;;;2.60;2.40;;;22.80;76.50;;;;;;5074903;28;20179;-72
2023/07/08 08:38:39;;;;;;;2.90;2.80;;;;;;;;;;5069104;28;20209;-72
2023/07/08 08:41:13;;;;;;;2.95;2.75;;;22.90;76.50;;;;;;5070941;28;20206;-72
2023/07/08 08:43:40;;;;;;;2.60;2.50;;;22.80;76.70;;;;;;5070700;28;20304;-72
2023/07/08 08:46:12;;;;;;;2.28;2.17;;;22.70;76.60;;;;;;5073005;28;20254;-72
2023/07/08 08:48:48;;;;;;;2.70;2.60;;;22.50;77.10;;;;;;5070523;28;20183;-72
2023/07/08 08:51:15;;;;;;;4.40;2.50;;;22.40;77.00;;;;;;5075321;28;20186;-73
2023/07/08 08:53:41;;;;;;;2.70;2.60;;;22.30;77.50;;;;;;5074544;28;20174;-72
2023/07/08 08:56:20;;;;;;;3.13;2.92;;;22.40;78.30;;;;;;5073602;28;21508;-73
2023/07/08 08:59:02;;;;;;;2.75;2.65;;;22.50;78.20;;;;;;5074317;28;20189;-72
2023/07/08 09:01:28;;;;;;;3.08;2.88;;;22.60;77.40;;;;;;5069917;28;20271;-73
2023/07/08 09:04:05;;;;;;;2.63;2.50;;;22.50;77.40;;;;;;5072373;28;20208;-73
2023/07/08 09:06:34;;;;;;;2.42;2.33;;;22.60;77.60;;;;;;5065533;28;20178;-73
2023/07/08 09:09:16;;;;;;;2.75;2.60;;;22.80;77.70;;;;;;5068683;28;20178;-73
2023/07/08 09:11:59;;;;;;;2.40;2.30;;;23.00;77.30;;;;;;5063264;28;20186;-73
2023/07/08 09:14:28;;;;;;;2.28;2.17;;;23.10;75.00;;;;;;5063952;28;20578;-73
2023/07/08 09:16:56;;;;;;;2.63;2.50;;;23.30;75.90;;;;;;5047106;28;20722;-74
2023/07/08 09:19:31;;;;;;;2.78;2.67;;;23.40;74.50;;;;;;5066736;28;20561;-73
2023/07/08 09:22:20;;;;;;;2.85;2.75;;;23.40;74.90;;;;;;5069569;28;20747;-73
2023/07/08 09:25:15;;;;;;;2.42;2.33;;;23.50;75.30;;;;;;5068745;28;20216;-72
2023/07/08 09:27:42;;;;;;;3.47;2.30;;;23.60;74.30;;;;;;5035520;28;20195;-73
2023/07/08 09:30:14;;;;;;;2.25;2.15;;;23.60;74.50;;;;;;5069661;28;20552;-73
2023/07/08 09:32:40;;;;;;;2.60;2.50;;;23.50;73.90;;;;;;5069712;28;20179;-73
2023/07/08 09:35:08;;;;;;;2.45;2.38;;;23.50;73.80;;;;;;5067983;28;20209;-72
2023/07/08 09:37:37;;;;;;;2.22;2.13;;;23.50;74.60;;;;;;5067755;28;20183;-72
2023/07/08 09:40:18;;;;;;;2.65;2.50;;;23.70;74.30;;;;;;5069232;28;20174;-73
2023/07/08 09:42:48;;;;;;;2.58;2.40;;;23.80;74.90;;;;;;5064160;28;20340;-72
2023/07/08 09:45:17;;;;;;;5.15;2.33;;;23.80;73.30;;;;;;5063388;28;20205;-73
2023/07/08 09:47:45;;;;;;;2.92;2.55;;;23.90;73.50;;;;;;5068316;28;20179;-73
2023/07/08 09:50:24;;;;;;;2.88;2.10;;;23.70;73.40;;;;;;5052316;28;20175;-73
2023/07/08 09:52:57;;;;;;;2.40;2.30;;;23.70;73.00;;;;;;5069211;28;20576;-72
2023/07/08 09:55:23;;;;;;;2.28;2.15;;;23.80;73.50;;;;;;5065568;28;20179;-72
2023/07/08 09:57:52;;;;;;;2.65;2.30;;;23.80;73.40;;;;;;5066976;28;20189;-73
2023/07/08 10:00:26;;;;;;;2.40;2.30;;;23.90;73.50;;;;;;5063444;28;20301;-73
2023/07/08 10:02:56;;;;;;;2.13;2.10;;;23.90;72.70;;;;;;5066981;28;20202;-73
2023/07/08 10:05:38;;;;;;;2.38;2.25;;;23.90;72.30;;;;;;5068772;28;20244;-73
2023/07/08 10:08:27;;;;;;;1.92;1.92;;;24.00;72.50;;;;;;5066259;28;20171;-73
2023/07/08 10:11:01;;;;;;;2.13;2.03;;;24.00;72.30;;;;;;5069019;28;20187;-72
2023/07/08 10:13:49;;;;;;;2.13;2.03;;;24.20;73.60;;;;;;5072822;28;20167;-72
2023/07/08 10:16:24;;;;;;;2.33;2.22;;;24.50;71.80;;;;;;5070670;28;20314;-73
2023/07/08 10:18:50;;;;;;;3.22;3.13;;;24.70;71.00;;;;;;5072831;28;20163;-72
2023/07/08 10:21:44;;;;;;;2.05;2.05;;;24.90;70.90;;;;;;5066354;28;20202;-73
2023/07/08 10:24:09;;;;;;;2.40;2.30;;;25.00;70.60;;;;;;5071053;28;20221;-73
2023/07/08 10:26:38;;;;;;;2.42;2.20;;;25.30;70.10;;;;;;5054559;28;20650;-73
2023/07/08 10:29:18;;;;;;;2.35;2.22;;;25.70;69.20;;;;;;5069077;28;20175;-73
2023/07/08 10:32:00;;;;;;;2.25;2.15;;;25.90;69.30;;;;;;5071580;28;20171;-72
2023/07/08 10:34:45;;;;;;;2.33;2.30;;;26.20;68.70;;;;;;5070002;28;20209;-73
2023/07/08 10:37:18;;;;;;;2.90;2.00;;;26.50;67.90;;;;;;5066392;28;20182;-72
2023/07/08 10:39:50;;;;;;;1.90;1.90;;;26.80;67.10;;;;;;5066762;28;20199;-72
2023/07/08 10:42:43;;;;;;;1.90;1.90;;;27.40;67.20;;;;;;5079149;28;20221;-72
2023/07/08 10:45:34;;;;;;;1.75;1.70;;;27.90;63.70;;;;;;5068718;28;20201;-72
2023/07/08 10:48:34;;;;;;;1.98;1.88;;;28.20;63.20;;;;;;5065803;28;20176;-73
2023/07/08 10:51:14;;;;;;;1.95;1.95;;;28.70;62.30;;;;;;5072247;28;20740;-73
2023/07/08 10:54:14;;;;;;;2.25;2.17;;;29.00;62.10;;;;;;5073276;28;20194;-73
2023/07/08 10:57:03;;;;;;;2.05;2.03;;;29.40;61.10;;;;;;5068640;28;20177;-73
2023/07/08 10:59:49;;;;;;;1.70;1.70;;;29.70;60.80;;;;;;5065293;28;20186;-72
2023/07/08 11:02:39;;;;;;;2.50;2.40;;;29.90;61.40;;;;;;5063885;28;20208;-73
2023/07/08 11:05:24;;;;;;;2.00;1.90;;;30.30;62.50;;;;;;5069260;28;20179;-73
2023/07/08 11:07:59;;;;;;;2.83;2.08;;;30.50;62.00;;;;;;5071726;28;20216;-73
2023/07/08 11:11:03;;;;;;;2.53;2.15;;;30.80;59.90;;;;;;5071826;28;20170;-72
2023/07/08 11:13:31;;;;;;;1.80;1.80;;;31.10;59.30;;;;;;5030085;28;20201;-73
2023/07/08 11:16:04;;;;;;;2.22;2.22;;;31.30;59.20;;;;;;5064986;28;20551;-73
2023/07/08 11:18:56;;;;;;;2.30;2.30;;;30.60;58.00;;;;;;5067803;28;20182;-73
2023/07/08 11:21:48;;;;;;;2.47;2.38;;;30.50;59.20;;;;;;5053000;28;20246;-73
2023/07/08 11:24:39;;;;;;;1.88;1.88;;;30.60;57.90;;;;;;5071703;28;20175;-72
2023/07/08 11:27:35;;;;;;;2.10;2.10;;;31.00;58.70;;;;;;5065613;28;20175;-73
2023/07/08 11:30:19;;;;;;;2.13;1.92;;;31.40;57.50;;;;;;5072282;28;20623;-74
2023/07/08 11:32:52;;;;;;;2.03;2.03;;;31.70;56.30;;;;;;5067596;28;20245;-72
2023/07/08 11:35:44;;;;;;;2.42;2.42;;;31.90;56.90;;;;;;5062997;28;20274;-72
2023/07/08 11:38:16;;;;;;;1.95;1.95;;;32.00;56.20;;;;;;5065965;28;20189;-72
2023/07/08 11:40:58;;;;;;;2.08;1.98;;;32.20;54.90;;;;;;5075415;28;20179;-72
2023/07/08 11:43:34;;;;;;;2.17;2.15;;;32.30;55.30;;;;;;5068812;28;20676;-72
2023/07/08 11:46:07;;;;;;;2.47;2.38;;;32.10;55.40;;;;;;5071292;28;20213;-72
2023/07/08 11:48:43;;;;;;;1.77;1.77;;;32.30;58.20;;;;;;5069054;28;20178;-70
2023/07/08 11:51:14;;;;;;;1.98;1.88;;;32.50;55.40;;;;;;5066495;28;20193;-71
2023/07/08 11:53:58;;;;;;;2.00;1.80;;;32.40;55.30;;;;;;5070851;28;20201;-71
2023/07/08 11:56:24;;;;;;;2.08;2.00;;;32.50;57.20;;;;;;5076175;28;20185;-71
2023/07/08 11:58:58;;;;;;;1.50;1.50;;;33.10;54.70;;;;;;5074739;28;20261;-72
2023/07/08 12:01:47;;;;;;;2.53;2.42;;;33.50;54.80;;;;;;5068580;28;20210;-72
2023/07/08 12:04:12;;;;;;;1.95;1.80;;;33.80;54.20;;;;;;5063443;28;20668;-72
2023/07/08 12:06:38;;;;;;;1.63;1.52;;;34.20;55.10;;;;;;5067288;28;20171;-72
2023/07/08 12:09:26;;;;;;;1.92;1.83;;;34.60;51.90;;;;;;5071048;28;22249;-72
2023/07/08 12:12:03;;;;;;;1.60;1.60;;;35.10;51.20;;;;;;5064376;28;20202;-71
2023/07/08 12:14:31;;;;;;;2.35;1.67;;;35.30;52.00;;;;;;5075350;28;20180;-72
2023/07/08 12:16:56;;;;;;;2.25;1.90;;;34.90;50.90;;;;;;5070692;28;20610;-72
2023/07/08 12:19:25;;;;;;;1.80;1.70;;;34.50;52.40;;;;;;5072296;28;20182;-72
2023/07/08 12:21:52;;;;;;;1.58;1.58;;;34.50;55.00;;;;;;5075671;28;20260;-71
2023/07/08 12:24:18;;;;;;;1.42;1.42;;;34.40;52.10;;;;;;5070282;28;20186;-72
2023/07/08 12:26:44;;;;;;;2.13;2.03;;;33.40;53.10;;;;;;5051410;28;20709;-70
2023/07/08 12:29:14;;;;;;;1.40;1.38;;;32.10;54.10;;;;;;5068257;28;20186;-72
2023/07/08 12:31:42;;;;;;;2.15;1.52;;;31.40;56.10;;;;;;5067094;28;20186;-72
2023/07/08 12:34:14;;;;;;;2.15;2.05;;;30.70;57.00;;;;;;5068592;28;20171;-73
2023/07/08 12:36:42;;;;;;;1.38;1.38;;;29.90;58.60;;;;;;5068705;28;20170;-72
2023/07/08 12:39:11;;;;;;;1.73;1.73;;;28.80;59.40;;;;;;5067246;28;20190;-72
2023/07/08 12:41:36;;;;;;;1.80;1.70;;;28.30;60.50;;;;;;5074059;28;20194;-71
2023/07/08 12:44:04;;;;;;;1.75;1.75;;;27.90;62.60;;;;;;5067879;28;20652;-71
2023/07/08 12:46:30;;;;;;;1.92;1.83;;;28.10;62.80;;;;;;5072880;28;20178;-72
2023/07/08 12:48:56;;;;;;;1.88;1.85;;;28.00;62.00;;;;;;5063702;28;20194;-71
2023/07/08 12:51:25;;;;;;;2.05;1.50;;;27.50;63.00;;;;;;5061295;28;20189;-72
2023/07/08 12:53:52;;;;;;;1.58;1.58;;;28.10;62.30;;;;;;5066747;28;20170;-73
2023/07/08 12:56:20;;;;;;;1.27;1.27;;;28.90;60.50;;;;;;5069974;28;20187;-72
2023/07/08 12:58:52;;;;;;;1.40;1.40;;;29.60;60.00;;;;;;5068570;28;20183;-69
2023/07/08 13:01:21;;;;;;;1.50;1.50;;;30.10;58.60;;;;;;5073509;28;20214;-72